sensor_id;sensor_type;location;lat;lon;timestamp;pressure;altitude;pressure_sealevel;temperature;humidity
78383;BME280;67668;52.294;4.692;2023-12-22T00:01:45;100350.34;;;8.00;83.42
78383;BME280;67668;52.294;4.692;2023-12-22T00:04:11;100347.84;;;7.98;84.05
78383;BME280;67668;52.294;4.692;2023-12-22T00:06:36;100348.66;;;7.99;83.91
78383;BME280;67668;52.294;4.692;2023-12-22T00:09:02;100373.38;;;7.98;84.40
78383;BME280;67668;52.294;4.692;2023-12-22T00:11:27;100375.00;;;7.99;85.06
78383;BME280;67668;52.294;4.692;2023-12-22T00:13:52;100383.91;;;7.98;84.88
78383;BME280;67668;52.294;4.692;2023-12-22T00:16:17;100398.72;;;7.99;85.82
78383;BME280;67668;52.294;4.692;2023-12-22T00:18:43;100388.47;;;7.96;86.73
78383;BME280;67668;52.294;4.692;2023-12-22T00:21:11;100400.00;;;7.95;86.60
78383;BME280;67668;52.294;4.692;2023-12-22T00:23:36;100385.13;;;7.94;86.60
78383;BME280;67668;52.294;4.692;2023-12-22T00:26:03;100386.81;;;7.95;87.27
78383;BME280;67668;52.294;4.692;2023-12-22T00:28:28;100386.94;;;7.93;86.61
78383;BME280;67668;52.294;4.692;2023-12-22T00:30:53;100395.00;;;7.92;86.92
78383;BME280;67668;52.294;4.692;2023-12-22T00:33:18;100370.44;;;7.91;87.57
78383;BME280;67668;52.294;4.692;2023-12-22T00:35:44;100358.09;;;7.92;87.78
78383;BME280;67668;52.294;4.692;2023-12-22T00:38:09;100354.47;;;7.93;87.45
78383;BME280;67668;52.294;4.692;2023-12-22T00:40:35;100373.66;;;7.95;88.37
78383;BME280;67668;52.294;4.692;2023-12-22T00:43:00;100389.19;;;7.98;88.48
78383;BME280;67668;52.294;4.692;2023-12-22T00:45:26;100392.94;;;7.95;88.17
78383;BME280;67668;52.294;4.692;2023-12-22T00:47:51;100386.09;;;7.93;88.57
78383;BME280;67668;52.294;4.692;2023-12-22T00:50:16;100386.25;;;7.91;88.52
78383;BME280;67668;52.294;4.692;2023-12-22T00:52:42;100387.09;;;7.92;88.74
78383;BME280;67668;52.294;4.692;2023-12-22T00:55:07;100388.03;;;7.91;88.42
78383;BME280;67668;52.294;4.692;2023-12-22T00:57:33;100397.75;;;7.90;88.00
78383;BME280;67668;52.294;4.692;2023-12-22T00:59:58;100396.91;;;7.90;87.79
78383;BME280;67668;52.294;4.692;2023-12-22T01:02:23;100388.03;;;7.91;88.34
78383;BME280;67668;52.294;4.692;2023-12-22T01:04:48;100387.38;;;7.89;88.41
78383;BME280;67668;52.294;4.692;2023-12-22T01:07:14;100396.06;;;7.89;87.55
78383;BME280;67668;52.294;4.692;2023-12-22T01:09:39;100414.50;;;7.89;88.22
78383;BME280;67668;52.294;4.692;2023-12-22T01:12:04;100396.91;;;7.90;89.02
78383;BME280;67668;52.294;4.692;2023-12-22T01:14:31;100413.44;;;7.92;88.84
78383;BME280;67668;52.294;4.692;2023-12-22T01:16:57;100423.25;;;7.90;88.75
78383;BME280;67668;52.294;4.692;2023-12-22T01:19:24;100414.94;;;7.85;87.81
78383;BME280;67668;52.294;4.692;2023-12-22T01:21:49;100415.78;;;7.85;88.47
78383;BME280;67668;52.294;4.692;2023-12-22T01:24:15;100410.63;;;7.84;88.59
78383;BME280;67668;52.294;4.692;2023-12-22T01:26:40;100414.94;;;7.85;88.20
78383;BME280;67668;52.294;4.692;2023-12-22T01:29:05;100412.16;;;7.86;88.54
78383;BME280;67668;52.294;4.692;2023-12-22T01:31:30;100396.34;;;7.86;88.54
78383;BME280;67668;52.294;4.692;2023-12-22T01:33:56;100397.19;;;7.87;89.40
78383;BME280;67668;52.294;4.692;2023-12-22T01:36:21;100397.06;;;7.88;88.44
78383;BME280;67668;52.294;4.692;2023-12-22T01:38:46;100396.22;;;7.88;88.40
78383;BME280;67668;52.294;4.692;2023-12-22T01:41:12;100392.75;;;7.87;87.89
78383;BME280;67668;52.294;4.692;2023-12-22T01:43:37;100387.19;;;7.80;86.68
78383;BME280;67668;52.294;4.692;2023-12-22T01:46:02;100389.94;;;7.79;84.92
78383;BME280;67668;52.294;4.692;2023-12-22T01:48:28;100399.94;;;7.75;85.26
78383;BME280;67668;52.294;4.692;2023-12-22T01:50:55;100387.75;;;7.74;84.75
78383;BME280;67668;52.294;4.692;2023-12-22T01:53:24;100389.66;;;7.72;84.14
78383;BME280;67668;52.294;4.692;2023-12-22T01:55:50;100395.91;;;7.71;83.95
78383;BME280;67668;52.294;4.692;2023-12-22T01:58:18;100397.72;;;7.71;82.09
78383;BME280;67668;52.294;4.692;2023-12-22T02:00:43;100401.88;;;7.73;83.91
78383;BME280;67668;52.294;4.692;2023-12-22T02:03:09;100408.81;;;7.74;84.59
78383;BME280;67668;52.294;4.692;2023-12-22T02:05:34;100409.78;;;7.73;83.63
78383;BME280;67668;52.294;4.692;2023-12-22T02:08:00;100403.53;;;7.74;84.26
78383;BME280;67668;52.294;4.692;2023-12-22T02:10:25;100410.50;;;7.75;83.82
78383;BME280;67668;52.294;4.692;2023-12-22T02:12:51;100395.75;;;7.73;82.99
78383;BME280;67668;52.294;4.692;2023-12-22T02:15:16;100394.13;;;7.72;82.17
78383;BME280;67668;52.294;4.692;2023-12-22T02:17:52;100403.53;;;7.74;81.04
78383;BME280;67668;52.294;4.692;2023-12-22T02:20:21;100391.31;;;7.73;81.62
78383;BME280;67668;52.294;4.692;2023-12-22T02:22:51;100398.28;;;7.74;80.85
78383;BME280;67668;52.294;4.692;2023-12-22T02:25:17;100407.97;;;7.74;82.34
78383;BME280;67668;52.294;4.692;2023-12-22T02:28:05;100384.25;;;7.74;82.26
78383;BME280;67668;52.294;4.692;2023-12-22T02:30:34;100390.38;;;7.74;82.81
78383;BME280;67668;52.294;4.692;2023-12-22T02:33:07;100406.19;;;7.74;82.87
78383;BME280;67668;52.294;4.692;2023-12-22T02:35:36;100408.81;;;7.74;82.63
78383;BME280;67668;52.294;4.692;2023-12-22T02:38:03;100414.06;;;7.74;82.85
78383;BME280;67668;52.294;4.692;2023-12-22T02:40:29;100404.50;;;7.73;82.29
78383;BME280;67668;52.294;4.692;2023-12-22T02:42:55;100406.28;;;7.73;79.46
78383;BME280;67668;52.294;4.692;2023-12-22T02:45:21;100410.72;;;7.72;80.21
78383;BME280;67668;52.294;4.692;2023-12-22T02:47:46;100407.13;;;7.73;81.45
78383;BME280;67668;52.294;4.692;2023-12-22T02:50:13;100405.22;;;7.75;81.46
78383;BME280;67668;52.294;4.692;2023-12-22T02:52:39;100392.84;;;7.76;80.51
78383;BME280;67668;52.294;4.692;2023-12-22T02:55:04;100399.13;;;7.75;79.97
78383;BME280;67668;52.294;4.692;2023-12-22T02:57:30;100404.38;;;7.75;80.18
78383;BME280;67668;52.294;4.692;2023-12-22T02:59:56;100409.38;;;7.78;80.69
78383;BME280;67668;52.294;4.692;2023-12-22T03:02:21;100403.28;;;7.77;81.68
78383;BME280;67668;52.294;4.692;2023-12-22T03:04:46;100400.75;;;7.76;82.66
78383;BME280;67668;52.294;4.692;2023-12-22T03:07:12;100417.28;;;7.78;82.61
78383;BME280;67668;52.294;4.692;2023-12-22T03:09:37;100423.50;;;7.77;83.76
78383;BME280;67668;52.294;4.692;2023-12-22T03:12:03;100414.66;;;7.78;83.27
78383;BME280;67668;52.294;4.692;2023-12-22T03:14:31;100401.31;;;7.79;82.79
78383;BME280;67668;52.294;4.692;2023-12-22T03:16:59;100404.69;;;7.82;83.04
78383;BME280;67668;52.294;4.692;2023-12-22T03:19:25;100403.00;;;7.80;83.34
78383;BME280;67668;52.294;4.692;2023-12-22T03:21:50;100413.25;;;7.84;82.24
78383;BME280;67668;52.294;4.692;2023-12-22T03:24:16;100420.06;;;7.86;82.43
78383;BME280;67668;52.294;4.692;2023-12-22T03:26:43;100416.59;;;7.86;82.34
78383;BME280;67668;52.294;4.692;2023-12-22T03:29:09;100421.16;;;7.84;82.57
78383;BME280;67668;52.294;4.692;2023-12-22T03:31:34;100413.94;;;7.86;81.21
78383;BME280;67668;52.294;4.692;2023-12-22T03:33:59;100403.28;;;7.87;80.29
78383;BME280;67668;52.294;4.692;2023-12-22T03:36:25;100419.94;;;7.88;80.47
78383;BME280;67668;52.294;4.692;2023-12-22T03:38:50;100416.34;;;7.89;78.91
78383;BME280;67668;52.294;4.692;2023-12-22T03:41:15;100422.56;;;7.88;80.10
78383;BME280;67668;52.294;4.692;2023-12-22T03:43:40;100427.97;;;7.86;79.29
78383;BME280;67668;52.294;4.692;2023-12-22T03:46:06;100418.25;;;7.87;80.74
78383;BME280;67668;52.294;4.692;2023-12-22T03:48:31;100409.41;;;7.88;80.71
78383;BME280;67668;52.294;4.692;2023-12-22T03:50:56;100414.78;;;7.86;80.40
78383;BME280;67668;52.294;4.692;2023-12-22T03:53:21;100410.50;;;7.85;78.76
78383;BME280;67668;52.294;4.692;2023-12-22T03:55:47;100411.06;;;7.89;78.93
78383;BME280;67668;52.294;4.692;2023-12-22T03:58:12;100404.81;;;7.90;77.35
78383;BME280;67668;52.294;4.692;2023-12-22T04:00:37;100442.41;;;7.92;77.64
78383;BME280;67668;52.294;4.692;2023-12-22T04:03:03;100433.69;;;7.91;76.39
78383;BME280;67668;52.294;4.692;2023-12-22T04:05:28;100427.31;;;7.94;77.43
78383;BME280;67668;52.294;4.692;2023-12-22T04:07:54;100425.34;;;7.96;76.55
78383;BME280;67668;52.294;4.692;2023-12-22T04:10:20;100432.97;;;7.99;76.79
78383;BME280;67668;52.294;4.692;2023-12-22T04:12:45;100422.72;;;7.96;78.81
78383;BME280;67668;52.294;4.692;2023-12-22T04:15:10;100433.97;;;7.98;78.52
78383;BME280;67668;52.294;4.692;2023-12-22T04:17:36;100433.69;;;8.01;79.59
78383;BME280;67668;52.294;4.692;2023-12-22T04:20:01;100432.59;;;8.03;80.23
78383;BME280;67668;52.294;4.692;2023-12-22T04:22:27;100429.13;;;8.03;81.43
78383;BME280;67668;52.294;4.692;2023-12-22T04:24:52;100423.84;;;8.03;81.12
78383;BME280;67668;52.294;4.692;2023-12-22T04:27:17;100422.88;;;8.04;81.50
78383;BME280;67668;52.294;4.692;2023-12-22T04:29:43;100428.16;;;8.04;81.47
78383;BME280;67668;52.294;4.692;2023-12-22T04:32:09;100444.66;;;8.06;81.00
78383;BME280;67668;52.294;4.692;2023-12-22T04:34:34;100428.16;;;8.04;81.48
78383;BME280;67668;52.294;4.692;2023-12-22T04:36:59;100415.66;;;8.06;81.21
78383;BME280;67668;52.294;4.692;2023-12-22T04:39:24;100419.13;;;8.06;81.54
78383;BME280;67668;52.294;4.692;2023-12-22T04:41:50;100424.28;;;8.08;82.55
78383;BME280;67668;52.294;4.692;2023-12-22T04:44:15;100436.22;;;8.12;81.42
78383;BME280;67668;52.294;4.692;2023-12-22T04:46:40;100440.38;;;8.14;81.71
78383;BME280;67668;52.294;4.692;2023-12-22T04:49:06;100434.97;;;8.16;81.30
78383;BME280;67668;52.294;4.692;2023-12-22T04:51:31;100428.63;;;8.18;80.54
78383;BME280;67668;52.294;4.692;2023-12-22T04:53:56;100436.38;;;8.20;80.55
78383;BME280;67668;52.294;4.692;2023-12-22T04:56:21;100437.31;;;8.19;81.28
78383;BME280;67668;52.294;4.692;2023-12-22T04:58:47;100431.09;;;8.20;80.30
78383;BME280;67668;52.294;4.692;2023-12-22T05:01:12;100418.59;;;8.22;80.25
78383;BME280;67668;52.294;4.692;2023-12-22T05:03:37;100432.50;;;8.24;79.74
78383;BME280;67668;52.294;4.692;2023-12-22T05:06:03;100434.28;;;8.23;80.21
78383;BME280;67668;52.294;4.692;2023-12-22T05:08:29;100433.19;;;8.26;80.86
78383;BME280;67668;52.294;4.692;2023-12-22T05:10:54;100443.72;;;8.26;80.48
78383;BME280;67668;52.294;4.692;2023-12-22T05:13:19;100442.75;;;8.27;80.47
78383;BME280;67668;52.294;4.692;2023-12-22T05:15:45;100425.28;;;8.26;81.03
78383;BME280;67668;52.294;4.692;2023-12-22T05:18:10;100414.59;;;8.27;80.92
78383;BME280;67668;52.294;4.692;2023-12-22T05:20:35;100410.19;;;8.28;81.79
78383;BME280;67668;52.294;4.692;2023-12-22T05:23:01;100406.69;;;8.27;81.85
78383;BME280;67668;52.294;4.692;2023-12-22T05:25:26;100407.56;;;8.28;81.48
78383;BME280;67668;52.294;4.692;2023-12-22T05:27:51;100415.47;;;8.28;82.69
78383;BME280;67668;52.294;4.692;2023-12-22T05:30:17;100416.31;;;8.28;82.50
78383;BME280;67668;52.294;4.692;2023-12-22T05:32:42;100415.47;;;8.28;82.84
78383;BME280;67668;52.294;4.692;2023-12-22T05:35:08;100407.41;;;8.29;82.08
78383;BME280;67668;52.294;4.692;2023-12-22T05:37:35;100402.84;;;8.32;82.75
78383;BME280;67668;52.294;4.692;2023-12-22T05:40:00;100413.94;;;8.35;82.61
78383;BME280;67668;52.294;4.692;2023-12-22T05:42:25;100408.41;;;8.38;82.91
78383;BME280;67668;52.294;4.692;2023-12-22T05:44:51;100420.59;;;8.39;83.20
78383;BME280;67668;52.294;4.692;2023-12-22T05:47:16;100402.13;;;8.39;81.95
78383;BME280;67668;52.294;4.692;2023-12-22T05:49:41;100400.34;;;8.40;82.36
78383;BME280;67668;52.294;4.692;2023-12-22T05:52:07;100415.31;;;8.39;82.30
78383;BME280;67668;52.294;4.692;2023-12-22T05:54:34;100418.94;;;8.38;82.30
78383;BME280;67668;52.294;4.692;2023-12-22T05:57:00;100408.97;;;8.42;82.71
78383;BME280;67668;52.294;4.692;2023-12-22T05:59:25;100415.03;;;8.42;83.29
78383;BME280;67668;52.294;4.692;2023-12-22T06:01:55;100416.88;;;8.42;82.72
78383;BME280;67668;52.294;4.692;2023-12-22T06:04:27;100427.25;;;8.43;83.29
78383;BME280;67668;52.294;4.692;2023-12-22T06:06:52;100416.59;;;8.45;82.94
78383;BME280;67668;52.294;4.692;2023-12-22T06:09:17;100416.44;;;8.46;83.58
78383;BME280;67668;52.294;4.692;2023-12-22T06:11:45;100415.59;;;8.46;83.64
78383;BME280;67668;52.294;4.692;2023-12-22T06:14:10;100430.34;;;8.48;83.56
78383;BME280;67668;52.294;4.692;2023-12-22T06:16:36;100426.88;;;8.48;84.44
78383;BME280;67668;52.294;4.692;2023-12-22T06:19:01;100432.97;;;8.48;84.18
78383;BME280;67668;52.294;4.692;2023-12-22T06:21:26;100443.38;;;8.50;84.19
78383;BME280;67668;52.294;4.692;2023-12-22T06:23:51;100440.59;;;8.51;84.67
78383;BME280;67668;52.294;4.692;2023-12-22T06:26:17;100436.97;;;8.52;84.55
78383;BME280;67668;52.294;4.692;2023-12-22T06:28:42;100431.56;;;8.54;84.53
78383;BME280;67668;52.294;4.692;2023-12-22T06:31:10;100420.06;;;8.55;84.33
78383;BME280;67668;52.294;4.692;2023-12-22T06:33:43;100421.59;;;8.57;83.95
78383;BME280;67668;52.294;4.692;2023-12-22T06:36:08;100415.34;;;8.58;84.36
78383;BME280;67668;52.294;4.692;2023-12-22T06:38:42;100425.91;;;8.58;84.85
78383;BME280;67668;52.294;4.692;2023-12-22T06:41:07;100421.31;;;8.60;85.12
78383;BME280;67668;52.294;4.692;2023-12-22T06:43:42;100421.97;;;8.62;85.50
78383;BME280;67668;52.294;4.692;2023-12-22T06:46:14;100421.84;;;8.64;85.54
78383;BME280;67668;52.294;4.692;2023-12-22T06:48:39;100421.03;;;8.63;85.77
78383;BME280;67668;52.294;4.692;2023-12-22T06:51:04;100420.91;;;8.65;85.71
78383;BME280;67668;52.294;4.692;2023-12-22T06:53:31;100408.50;;;8.65;85.46
78383;BME280;67668;52.294;4.692;2023-12-22T06:55:56;100405.75;;;8.67;85.91
78383;BME280;67668;52.294;4.692;2023-12-22T06:58:21;100416.16;;;8.68;86.00
78383;BME280;67668;52.294;4.692;2023-12-22T07:00:46;100409.06;;;8.69;85.78
78383;BME280;67668;52.294;4.692;2023-12-22T07:03:12;100408.22;;;8.68;85.81
78383;BME280;67668;52.294;4.692;2023-12-22T07:05:37;100398.38;;;8.70;86.73
78383;BME280;67668;52.294;4.692;2023-12-22T07:08:03;100393.13;;;8.70;87.20
78383;BME280;67668;52.294;4.692;2023-12-22T07:10:28;100395.59;;;8.72;87.20
78383;BME280;67668;52.294;4.692;2023-12-22T07:12:53;100392.00;;;8.73;87.73
78383;BME280;67668;52.294;4.692;2023-12-22T07:15:19;100399.91;;;8.73;87.56
78383;BME280;67668;52.294;4.692;2023-12-22T07:17:44;100411.28;;;8.73;88.07
78383;BME280;67668;52.294;4.692;2023-12-22T07:20:09;100405.75;;;8.76;87.78
78383;BME280;67668;52.294;4.692;2023-12-22T07:22:35;100417.25;;;8.75;88.03
78383;BME280;67668;52.294;4.692;2023-12-22T07:25:00;100424.22;;;8.76;88.26
78383;BME280;67668;52.294;4.692;2023-12-22T07:27:25;100416.97;;;8.78;87.97
78383;BME280;67668;52.294;4.692;2023-12-22T07:29:51;100417.81;;;8.79;88.18
78383;BME280;67668;52.294;4.692;2023-12-22T07:32:16;100417.53;;;8.82;87.92
78383;BME280;67668;52.294;4.692;2023-12-22T07:34:41;100426.28;;;8.82;88.21
78383;BME280;67668;52.294;4.692;2023-12-22T07:37:07;100399.59;;;8.86;88.13
78383;BME280;67668;52.294;4.692;2023-12-22T07:39:32;100403.09;;;8.86;89.03
78383;BME280;67668;52.294;4.692;2023-12-22T07:41:57;100408.22;;;8.88;89.04
78383;BME280;67668;52.294;4.692;2023-12-22T07:44:22;100405.59;;;8.88;89.21
78383;BME280;67668;52.294;4.692;2023-12-22T07:46:56;100416.16;;;8.88;89.41
78383;BME280;67668;52.294;4.692;2023-12-22T07:49:23;100408.22;;;8.88;90.22
78383;BME280;67668;52.294;4.692;2023-12-22T07:51:48;100405.44;;;8.89;90.64
78383;BME280;67668;52.294;4.692;2023-12-22T07:54:16;100407.25;;;8.89;91.53
78383;BME280;67668;52.294;4.692;2023-12-22T07:56:42;100427.53;;;8.88;91.43
78383;BME280;67668;52.294;4.692;2023-12-22T07:59:08;100429.47;;;8.86;91.77
78383;BME280;67668;52.294;4.692;2023-12-22T08:01:33;100428.34;;;8.89;92.29
78383;BME280;67668;52.294;4.692;2023-12-22T08:03:58;100430.88;;;8.90;92.47
78383;BME280;67668;52.294;4.692;2023-12-22T08:06:24;100423.63;;;8.92;92.90
78383;BME280;67668;52.294;4.692;2023-12-22T08:08:49;100417.38;;;8.93;92.64
78383;BME280;67668;52.294;4.692;2023-12-22T08:11:14;100410.59;;;8.91;92.98
78383;BME280;67668;52.294;4.692;2023-12-22T08:13:40;100411.25;;;8.93;93.44
78383;BME280;67668;52.294;4.692;2023-12-22T08:16:05;100409.75;;;8.90;93.96
78383;BME280;67668;52.294;4.692;2023-12-22T08:18:30;100404.47;;;8.90;93.83
78383;BME280;67668;52.294;4.692;2023-12-22T08:20:56;100398.22;;;8.91;93.82
78383;BME280;67668;52.294;4.692;2023-12-22T08:23:21;100394.59;;;8.92;93.28
78383;BME280;67668;52.294;4.692;2023-12-22T08:25:46;100385.03;;;8.91;93.49
78383;BME280;67668;52.294;4.692;2023-12-22T08:28:13;100378.91;;;8.91;93.89
78383;BME280;67668;52.294;4.692;2023-12-22T08:30:38;100369.19;;;8.91;93.73
78383;BME280;67668;52.294;4.692;2023-12-22T08:33:04;100373.47;;;8.92;93.53
78383;BME280;67668;52.294;4.692;2023-12-22T08:35:29;100369.88;;;8.93;93.24
78383;BME280;67668;52.294;4.692;2023-12-22T08:37:55;100374.19;;;8.94;93.50
78383;BME280;67668;52.294;4.692;2023-12-22T08:40:20;100376.66;;;8.96;93.69
78383;BME280;67668;52.294;4.692;2023-12-22T08:42:51;100379.31;;;8.96;93.68
78383;BME280;67668;52.294;4.692;2023-12-22T08:45:20;100381.94;;;8.96;93.96
78383;BME280;67668;52.294;4.692;2023-12-22T08:47:45;100379.03;;;8.99;93.80
78383;BME280;67668;52.294;4.692;2023-12-22T08:50:10;100384.28;;;8.99;93.62
78383;BME280;67668;52.294;4.692;2023-12-22T08:52:37;100387.66;;;9.01;94.06
78383;BME280;67668;52.294;4.692;2023-12-22T08:55:03;100379.72;;;9.01;94.35
78383;BME280;67668;52.294;4.692;2023-12-22T08:57:28;100376.09;;;9.02;94.07
78383;BME280;67668;52.294;4.692;2023-12-22T08:59:54;100378.59;;;9.03;94.68
78383;BME280;67668;52.294;4.692;2023-12-22T09:02:19;100384.72;;;9.04;94.39
78383;BME280;67668;52.294;4.692;2023-12-22T09:04:44;100387.19;;;9.05;94.95
78383;BME280;67668;52.294;4.692;2023-12-22T09:07:10;100379.16;;;9.07;94.66
78383;BME280;67668;52.294;4.692;2023-12-22T09:09:35;100379.81;;;9.09;94.72
78383;BME280;67668;52.294;4.692;2023-12-22T09:12:00;100378.88;;;9.10;94.66
78383;BME280;67668;52.294;4.692;2023-12-22T09:14:26;100386.66;;;9.11;94.54
78383;BME280;67668;52.294;4.692;2023-12-22T09:16:51;100387.47;;;9.12;94.20
78383;BME280;67668;52.294;4.692;2023-12-22T09:19:18;100389.97;;;9.13;94.61
78383;BME280;67668;52.294;4.692;2023-12-22T09:21:43;100394.13;;;9.16;94.39
78383;BME280;67668;52.294;4.692;2023-12-22T09:24:09;100398.44;;;9.17;94.17
78383;BME280;67668;52.294;4.692;2023-12-22T09:26:34;100389.69;;;9.16;94.08
78383;BME280;67668;52.294;4.692;2023-12-22T09:29:00;100403.56;;;9.18;93.95
78383;BME280;67668;52.294;4.692;2023-12-22T09:31:25;100398.16;;;9.20;94.38
78383;BME280;67668;52.294;4.692;2023-12-22T09:33:50;100396.34;;;9.20;93.95
78383;BME280;67668;52.294;4.692;2023-12-22T09:36:15;100396.19;;;9.22;94.11
78383;BME280;67668;52.294;4.692;2023-12-22T09:38:41;100403.00;;;9.24;93.81
78383;BME280;67668;52.294;4.692;2023-12-22T09:41:06;100399.25;;;9.27;93.64
78383;BME280;67668;52.294;4.692;2023-12-22T09:43:34;100400.06;;;9.27;93.86
78383;BME280;67668;52.294;4.692;2023-12-22T09:46:01;100392.00;;;9.29;93.73
78383;BME280;67668;52.294;4.692;2023-12-22T09:48:27;100396.31;;;9.30;94.03
78383;BME280;67668;52.294;4.692;2023-12-22T09:50:54;100409.22;;;9.33;94.03
78383;BME280;67668;52.294;4.692;2023-12-22T09:53:20;100411.72;;;9.34;94.49
78383;BME280;67668;52.294;4.692;2023-12-22T09:55:46;100402.69;;;9.37;94.21
78383;BME280;67668;52.294;4.692;2023-12-22T09:58:13;100408.63;;;9.39;94.10
78383;BME280;67668;52.294;4.692;2023-12-22T10:00:43;100416.56;;;9.39;94.07
78383;BME280;67668;52.294;4.692;2023-12-22T10:03:10;100413.63;;;9.42;94.22
78383;BME280;67668;52.294;4.692;2023-12-22T10:05:36;100417.78;;;9.45;94.28
78383;BME280;67668;52.294;4.692;2023-12-22T10:08:02;100409.06;;;9.44;93.94
78383;BME280;67668;52.294;4.692;2023-12-22T10:10:29;100405.13;;;9.48;93.91
78383;BME280;67668;52.294;4.692;2023-12-22T10:12:55;100412.06;;;9.49;93.62
78383;BME280;67668;52.294;4.692;2023-12-22T10:15:22;100406.78;;;9.49;94.15
78383;BME280;67668;52.294;4.692;2023-12-22T10:17:50;100405.81;;;9.50;93.67
78383;BME280;67668;52.294;4.692;2023-12-22T10:20:16;100410.09;;;9.51;93.43
78383;BME280;67668;52.294;4.692;2023-12-22T10:22:41;100416.09;;;9.53;93.28
78383;BME280;67668;52.294;4.692;2023-12-22T10:25:08;100418.75;;;9.53;93.18
78383;BME280;67668;52.294;4.692;2023-12-22T10:27:35;100433.63;;;9.54;93.20
78383;BME280;67668;52.294;4.692;2023-12-22T10:30:02;100431.66;;;9.56;93.05
78383;BME280;67668;52.294;4.692;2023-12-22T10:32:28;100432.34;;;9.58;92.78
78383;BME280;67668;52.294;4.692;2023-12-22T10:34:53;100427.75;;;9.60;92.92
78383;BME280;67668;52.294;4.692;2023-12-22T10:37:20;100436.34;;;9.62;92.71
78383;BME280;67668;52.294;4.692;2023-12-22T10:39:46;100433.59;;;9.64;92.70
78383;BME280;67668;52.294;4.692;2023-12-22T10:42:14;100436.91;;;9.66;92.61
78383;BME280;67668;52.294;4.692;2023-12-22T10:44:40;100434.25;;;9.66;92.69
78383;BME280;67668;52.294;4.692;2023-12-22T10:47:05;100430.66;;;9.67;92.67
78383;BME280;67668;52.294;4.692;2023-12-22T10:49:31;100431.31;;;9.69;92.61
78383;BME280;67668;52.294;4.692;2023-12-22T10:51:57;100417.81;;;9.72;92.44
78383;BME280;67668;52.294;4.692;2023-12-22T10:54:22;100416.97;;;9.71;92.89
78383;BME280;67668;52.294;4.692;2023-12-22T10:56:47;100419.47;;;9.73;92.79
78383;BME280;67668;52.294;4.692;2023-12-22T10:59:17;100415.88;;;9.74;92.41
78383;BME280;67668;52.294;4.692;2023-12-22T11:01:43;100415.88;;;9.74;92.47
78383;BME280;67668;52.294;4.692;2023-12-22T11:04:13;100421.97;;;9.74;92.70
78383;BME280;67668;52.294;4.692;2023-12-22T11:06:42;100414.75;;;9.76;92.21
78383;BME280;67668;52.294;4.692;2023-12-22T11:09:10;100415.41;;;9.78;91.94
78383;BME280;67668;52.294;4.692;2023-12-22T11:11:39;100406.34;;;9.81;91.63
78383;BME280;67668;52.294;4.692;2023-12-22T11:14:06;100406.50;;;9.79;91.48
78383;BME280;67668;52.294;4.692;2023-12-22T11:16:34;100411.63;;;9.81;91.47
78383;BME280;67668;52.294;4.692;2023-12-22T11:19:01;100397.63;;;9.80;91.61
78383;BME280;67668;52.294;4.692;2023-12-22T11:21:27;100394.69;;;9.83;91.60
78383;BME280;67668;52.294;4.692;2023-12-22T11:23:54;100393.69;;;9.84;91.56
78383;BME280;67668;52.294;4.692;2023-12-22T11:26:20;100385.47;;;9.88;91.72
78383;BME280;67668;52.294;4.692;2023-12-22T11:28:47;100389.75;;;9.88;91.79
78383;BME280;67668;52.294;4.692;2023-12-22T11:31:13;100386.81;;;9.92;91.57
78383;BME280;67668;52.294;4.692;2023-12-22T11:33:49;100385.19;;;9.91;91.67
78383;BME280;67668;52.294;4.692;2023-12-22T11:36:16;100388.78;;;9.90;91.54
78383;BME280;67668;52.294;4.692;2023-12-22T11:38:44;100383.22;;;9.93;91.57
78383;BME280;67668;52.294;4.692;2023-12-22T11:41:12;100400.75;;;9.94;91.19
78383;BME280;67668;52.294;4.692;2023-12-22T11:43:41;100382.91;;;9.96;91.42
78383;BME280;67668;52.294;4.692;2023-12-22T11:46:08;100373.00;;;9.98;91.45
78383;BME280;67668;52.294;4.692;2023-12-22T11:48:36;100373.69;;;10.00;91.51
78383;BME280;67668;52.294;4.692;2023-12-22T11:51:12;100366.44;;;10.02;91.14
78383;BME280;67668;52.294;4.692;2023-12-22T11:53:37;100368.78;;;10.05;91.32
78383;BME280;67668;52.294;4.692;2023-12-22T11:56:03;100352.91;;;10.05;91.18
78383;BME280;67668;52.294;4.692;2023-12-22T12:01:09;100352.63;;;10.08;90.86
78383;BME280;67668;52.294;4.692;2023-12-22T12:03:47;100341.06;;;10.09;90.91
78383;BME280;67668;52.294;4.692;2023-12-22T12:08:38;100336.22;;;10.14;91.06
78383;BME280;67668;52.294;4.692;2023-12-22T12:11:03;100338.84;;;10.14;91.12
78383;BME280;67668;52.294;4.692;2023-12-22T12:13:30;100344.16;;;10.14;90.71
78383;BME280;67668;52.294;4.692;2023-12-22T12:15:58;100354.41;;;10.17;91.08
78383;BME280;67668;52.294;4.692;2023-12-22T12:18:27;100349.97;;;10.17;90.45
78383;BME280;67668;52.294;4.692;2023-12-22T12:20:53;100341.88;;;10.19;90.19
78383;BME280;67668;52.294;4.692;2023-12-22T12:23:19;100361.03;;;10.21;89.83
78383;BME280;67668;52.294;4.692;2023-12-22T12:25:44;100348.66;;;10.21;89.78
78383;BME280;67668;52.294;4.692;2023-12-22T12:28:09;100330.97;;;10.22;89.86
78383;BME280;67668;52.294;4.692;2023-12-22T12:30:37;100332.66;;;10.23;89.58
78383;BME280;67668;52.294;4.692;2023-12-22T12:33:10;100337.94;;;10.23;89.24
78383;BME280;67668;52.294;4.692;2023-12-22T12:35:39;100338.78;;;10.23;89.26
78383;BME280;67668;52.294;4.692;2023-12-22T12:38:05;100323.75;;;10.24;89.27
78383;BME280;67668;52.294;4.692;2023-12-22T12:40:31;100330.66;;;10.25;88.87
78383;BME280;67668;52.294;4.692;2023-12-22T12:42:59;100329.03;;;10.24;88.47
78383;BME280;67668;52.294;4.692;2023-12-22T12:45:25;100356.81;;;10.28;88.88
78383;BME280;67668;52.294;4.692;2023-12-22T12:48:03;100346.94;;;10.30;88.56
78383;BME280;67668;52.294;4.692;2023-12-22T12:50:29;100332.88;;;10.29;88.97
78383;BME280;67668;52.294;4.692;2023-12-22T12:52:55;100338.00;;;10.31;88.61
78383;BME280;67668;52.294;4.692;2023-12-22T12:55:24;100331.72;;;10.32;88.21
78383;BME280;67668;52.294;4.692;2023-12-22T12:57:54;100337.53;;;10.35;88.40
78383;BME280;67668;52.294;4.692;2023-12-22T13:00:32;100334.75;;;10.37;88.54